createdAt,value
2019-01-29T00:01:09.834Z,7.80
2019-01-29T00:07:28.497Z,24.03
2019-01-29T00:10:51.017Z,33.77
2019-01-29T00:13:48.218Z,100.40
2019-01-29T00:16:35.571Z,62.57
2019-01-29T00:19:34.274Z,33.80
2019-01-29T00:22:33.571Z,21.53
2019-01-29T00:25:30.750Z,13.77
2019-01-29T00:28:20.383Z,14.07
2019-01-29T00:31:08.139Z,16.97
2019-01-29T00:34:10.112Z,18.53
2019-01-29T00:37:17.008Z,17.37
2019-01-29T00:40:20.613Z,20.13
2019-01-29T00:44:13.604Z,29.20
2019-01-29T00:47:01.429Z,75.83
2019-01-29T00:49:58.687Z,40.10
2019-01-29T00:56:23.352Z,19.13
2019-01-29T00:59:35.382Z,27.07
2019-01-29T01:06:16.644Z,16.03
2019-01-29T01:09:12.477Z,27.00
2019-01-29T01:12:25.301Z,24.20
2019-01-29T01:15:44.814Z,15.83
2019-01-29T01:18:35.576Z,25.80
2019-01-29T01:21:32.693Z,25.40
2019-01-29T01:24:15.322Z,31.63
2019-01-29T01:26:51.574Z,30.60
2019-01-29T01:29:36.178Z,15.23
2019-01-29T01:32:40.294Z,19.97
2019-01-29T01:35:39.453Z,26.10
2019-01-29T01:38:28.677Z,20.90
2019-01-29T01:41:30.165Z,32.33
2019-01-29T01:44:13.147Z,33.77
2019-01-29T01:46:48.635Z,37.70
2019-01-29T01:49:44.029Z,54.67
2019-01-29T01:52:33.413Z,42.03
2019-01-29T01:55:16.537Z,55.30
2019-01-29T01:57:54.348Z,33.10
2019-01-29T02:00:33.515Z,32.87
2019-01-29T02:03:20.210Z,29.80
2019-01-29T02:05:57.641Z,35.33
2019-01-29T02:08:52.515Z,56.73
2019-01-29T02:11:33.699Z,37.00
2019-01-29T02:14:16.238Z,33.80
2019-01-29T02:16:53.362Z,23.90
2019-01-29T02:19:37.036Z,34.27
2019-01-29T02:22:19.973Z,21.07
2019-01-29T02:25:31.142Z,12.80
2019-01-29T02:28:13.205Z,15.23
2019-01-29T02:30:51.805Z,28.60
2019-01-29T02:33:28.664Z,15.23
2019-01-29T02:36:11.765Z,17.33
2019-01-29T02:39:05.539Z,11.90
2019-01-29T02:41:44.295Z,14.18
2019-01-29T02:44:34.469Z,11.40
2019-01-29T02:47:20.704Z,17.00
2019-01-29T02:49:55.711Z,14.20
2019-01-29T02:52:41.106Z,14.07
2019-01-29T02:55:22.632Z,12.60
2019-01-29T02:58:04.043Z,10.20
2019-01-29T03:00:44.664Z,12.73
2019-01-29T03:03:21.084Z,19.60
2019-01-29T03:05:57.246Z,10.47
2019-01-29T03:08:37.841Z,11.60
2019-01-29T03:11:31.136Z,13.10
2019-01-29T03:14:12.114Z,21.60
2019-01-29T03:16:44.554Z,22.37
2019-01-29T03:19:41.396Z,13.80
2019-01-29T03:22:24.272Z,12.23
2019-01-29T03:25:01.109Z,13.93
2019-01-29T03:27:34.448Z,13.30
2019-01-29T03:30:09.574Z,14.18
2019-01-29T03:32:55.041Z,14.13
2019-01-29T03:35:37.450Z,19.07
2019-01-29T03:38:18.281Z,10.10
2019-01-29T03:41:01.776Z,17.23
2019-01-29T03:43:35.299Z,12.40
2019-01-29T03:46:15.544Z,22.60
2019-01-29T03:48:57.524Z,18.27
2019-01-29T03:51:43.535Z,15.40
2019-01-29T03:54:27.950Z,17.17
2019-01-29T03:57:21.011Z,16.30
2019-01-29T03:59:54.105Z,17.00
2019-01-29T04:02:42.345Z,11.53
2019-01-29T04:05:18.471Z,13.73
2019-01-29T04:08:06.481Z,22.70
2019-01-29T04:10:39.951Z,15.17
2019-01-29T04:13:21.870Z,19.27
2019-01-29T04:16:03.224Z,16.30
2019-01-29T04:18:37.028Z,13.60
2019-01-29T04:21:12.950Z,17.82
2019-01-29T04:23:48.537Z,11.97
2019-01-29T04:26:22.689Z,13.13
2019-01-29T04:29:07.780Z,19.83
2019-01-29T04:31:42.892Z,19.10
2019-01-29T04:34:18.718Z,13.37
2019-01-29T04:36:55.449Z,11.37
2019-01-29T04:39:39.494Z,18.83
2019-01-29T04:42:20.845Z,13.53
2019-01-29T04:44:59.955Z,10.33
2019-01-29T04:47:35.983Z,10.30
2019-01-29T04:50:21.822Z,11.03
2019-01-29T04:52:55.185Z,9.47
2019-01-29T04:55:34.781Z,21.50
2019-01-29T04:58:41.104Z,19.17
2019-01-29T05:01:18.474Z,24.57
2019-01-29T05:04:03.265Z,24.60
2019-01-29T05:06:59.907Z,13.03
2019-01-29T05:09:52.703Z,23.10
2019-01-29T05:12:48.625Z,16.30
2019-01-29T05:15:37.550Z,16.83
2019-01-29T05:19:01.241Z,16.20
2019-01-29T05:21:44.057Z,27.20
2019-01-29T05:24:40.703Z,13.40
2019-01-29T05:27:39.360Z,14.37
2019-01-29T05:30:37.948Z,18.30
2019-01-29T05:33:15.553Z,17.90
2019-01-29T05:36:06.215Z,28.30
2019-01-29T05:38:47.921Z,20.00
2019-01-29T05:42:09.893Z,23.97
2019-01-29T05:44:55.300Z,31.07
2019-01-29T05:48:27.566Z,33.07
2019-01-29T05:51:40.743Z,46.50
2019-01-29T05:54:38.928Z,43.13
2019-01-29T05:57:41.984Z,38.33
2019-01-29T06:00:40.667Z,48.23
2019-01-29T06:04:11.713Z,57.93
2019-01-29T06:07:20.634Z,43.37
2019-01-29T06:10:32.975Z,49.00
2019-01-29T06:13:52.181Z,50.70
2019-01-29T06:16:58.455Z,56.03
2019-01-29T06:20:23.166Z,51.40
2019-01-29T06:23:29.453Z,48.73
2019-01-29T06:26:25.595Z,42.00
2019-01-29T06:33:37.196Z,47.40
2019-01-29T06:37:05.456Z,56.83
2019-01-29T06:39:31.052Z,44.20
2019-01-29T06:53:29.247Z,53.03
2019-01-29T06:56:20.902Z,72.60
2019-01-29T06:59:47.471Z,49.33
2019-01-29T07:06:19.976Z,50.33
2019-01-29T07:09:25.482Z,51.60
2019-01-29T07:12:28.909Z,60.87
2019-01-29T07:15:51.433Z,59.87
2019-01-29T07:18:54.236Z,62.07
2019-01-29T07:21:48.192Z,57.47
2019-01-29T07:24:43.117Z,56.47
2019-01-29T07:27:54.885Z,67.23
2019-01-29T07:33:59.451Z,55.97
2019-01-29T07:37:56.886Z,52.50
2019-01-29T07:41:21.979Z,54.33
2019-01-29T07:44:21.877Z,46.30
2019-01-29T07:47:19.586Z,50.60
2019-01-29T07:54:13.454Z,55.67
2019-01-29T07:57:42.147Z,57.63
2019-01-29T08:00:37.147Z,51.43
2019-01-29T08:04:07.876Z,46.37
2019-01-29T08:07:33.436Z,40.77
2019-01-29T08:10:58.477Z,38.53
2019-01-29T08:14:43.370Z,39.77
2019-01-29T08:16:54.561Z,37.60
2019-01-29T08:19:49.052Z,43.83
2019-01-29T08:22:50.568Z,29.40
2019-01-29T08:26:16.156Z,36.77
2019-01-29T08:29:22.939Z,39.33
2019-01-29T08:32:25.321Z,37.00
2019-01-29T08:35:52.250Z,38.47
2019-01-29T08:38:54.896Z,37.37
2019-01-29T08:42:27.349Z,28.13
2019-01-29T08:45:39.706Z,31.93
2019-01-29T08:52:29.914Z,39.53
2019-01-29T08:55:16.508Z,43.00
2019-01-29T08:58:54.751Z,42.08
2019-01-29T09:02:12.538Z,39.00
2019-01-29T09:05:18.788Z,36.47
2019-01-29T09:09:03.520Z,43.90
2019-01-29T09:12:12.497Z,37.37
2019-01-29T09:15:39.995Z,37.27
2019-01-29T09:23:22.735Z,43.57
2019-01-29T09:26:23.839Z,26.70
2019-01-29T09:30:02.981Z,31.50
2019-01-29T09:33:20.459Z,27.03
2019-01-29T09:36:36.051Z,28.27
2019-01-29T09:39:33.580Z,22.53
2019-01-29T09:42:54.206Z,31.85
2019-01-29T09:46:16.584Z,31.07
2019-01-29T09:52:24.867Z,29.87
2019-01-29T09:56:13.958Z,25.97
2019-01-29T09:59:09.910Z,26.03
2019-01-29T10:02:12.086Z,21.33
2019-01-29T10:05:13.846Z,27.23
2019-01-29T10:08:25.359Z,24.53
2019-01-29T10:12:04.625Z,20.27
2019-01-29T10:15:42.216Z,22.80
2019-01-29T10:19:12.920Z,22.43
2019-01-29T10:22:46.399Z,18.97
2019-01-29T10:25:55.662Z,22.13
2019-01-29T10:29:18.582Z,17.67
2019-01-29T10:32:38.353Z,25.83
2019-01-29T10:35:33.549Z,37.00
2019-01-29T10:38:47.137Z,22.17
2019-01-29T10:42:12.427Z,18.30
2019-01-29T10:45:41.594Z,15.73
2019-01-29T10:52:13.808Z,17.80
2019-01-29T10:55:27.300Z,22.83
2019-01-29T10:58:37.278Z,15.60
2019-01-29T11:02:07.190Z,19.97
2019-01-29T11:05:38.948Z,16.10
2019-01-29T11:09:07.063Z,14.77
2019-01-29T11:12:09.159Z,17.40
2019-01-29T11:15:47.459Z,16.53
2019-01-29T11:18:31.877Z,11.33
2019-01-29T11:21:46.075Z,11.60
2019-01-29T11:28:55.901Z,10.77
2019-01-29T11:36:11.141Z,14.80
2019-01-29T11:39:11.007Z,15.90
2019-01-29T11:42:05.437Z,12.70
2019-01-29T11:47:57.259Z,8.40
2019-01-29T11:50:49.418Z,8.40
2019-01-29T11:54:00.011Z,9.13
2019-01-29T12:01:33.136Z,10.07
2019-01-29T12:23:29.101Z,7.73
2019-01-29T12:26:43.430Z,7.17
2019-01-29T12:29:20.207Z,6.47
2019-01-29T12:29:45.585Z,6.97
2019-01-29T12:32:38.231Z,11.00
2019-01-29T12:35:59.698Z,7.23
2019-01-29T12:38:47.507Z,11.60
2019-01-29T12:42:06.044Z,13.90
2019-01-29T12:45:19.409Z,7.00
2019-01-29T12:52:20.660Z,18.77
2019-01-29T12:58:52.408Z,5.80
2019-01-29T13:02:04.362Z,10.07
2019-01-29T13:05:32.698Z,8.27
2019-01-29T13:08:36.117Z,9.40
2019-01-29T13:14:52.240Z,8.03
2019-01-29T13:21:22.878Z,10.03
2019-01-29T13:24:37.650Z,6.43
2019-01-29T13:28:00.508Z,9.80
2019-01-29T13:35:37.821Z,10.50
2019-01-29T13:39:38.160Z,10.23
2019-01-29T13:53:13.529Z,7.50
2019-01-29T13:56:40.037Z,11.70
2019-01-29T14:00:16.437Z,3.30
2019-01-29T14:03:09.817Z,3.27
2019-01-29T14:06:16.144Z,9.70
2019-01-29T14:09:18.309Z,4.87
2019-01-29T14:12:23.480Z,7.23
2019-01-29T14:15:43.352Z,8.40
2019-01-29T14:19:37.606Z,6.67
2019-01-29T14:22:44.651Z,8.03
2019-01-29T14:25:54.945Z,5.20
2019-01-29T14:29:06.383Z,9.33
2019-01-29T14:32:39.310Z,7.97
2019-01-29T14:35:41.377Z,14.17
2019-01-29T14:39:02.277Z,7.50
2019-01-29T14:42:56.677Z,10.80
2019-01-29T14:49:20.426Z,8.73
2019-01-29T14:55:36.240Z,3.73
2019-01-29T14:58:39.967Z,6.17
2019-01-29T15:01:55.656Z,6.87
2019-01-29T15:04:57.670Z,9.20
2019-01-29T15:08:40.475Z,6.23
2019-01-29T15:12:24.649Z,5.50
2019-01-29T15:16:31.204Z,4.17
2019-01-29T15:20:21.062Z,6.63
2019-01-29T15:27:28.136Z,8.63
2019-01-29T15:30:46.843Z,9.60
2019-01-29T15:34:08.670Z,12.00
2019-01-29T15:37:16.654Z,12.60
2019-01-29T15:41:11.353Z,11.80
2019-01-29T15:52:02.961Z,7.50
2019-01-29T15:55:31.937Z,9.30
2019-01-29T15:58:57.518Z,4.87
2019-01-29T16:35:39.613Z,6.40
2019-01-29T16:39:21.499Z,14.60
2019-01-29T16:50:34.239Z,7.83
2019-01-29T16:54:02.596Z,10.47
2019-01-29T17:00:59.888Z,19.73
2019-01-29T17:04:42.244Z,31.93
2019-01-29T17:07:42.437Z,38.37
2019-01-29T17:11:28.837Z,16.20
2019-01-29T17:14:51.126Z,13.90
2019-01-29T17:22:38.829Z,12.07
2019-01-29T17:25:52.514Z,8.93
2019-01-29T17:32:59.116Z,17.20
2019-01-29T17:39:51.921Z,15.10
2019-01-29T17:42:51.526Z,16.00
2019-01-29T17:46:55.032Z,12.73
2019-01-29T17:50:01.678Z,13.20
2019-01-29T17:53:44.196Z,10.30
2019-01-29T17:57:05.296Z,10.90
2019-01-29T18:00:55.222Z,11.90
2019-01-29T18:04:14.194Z,8.60
2019-01-29T18:21:13.395Z,8.80
2019-01-29T18:24:03.027Z,10.20
2019-01-29T18:24:19.240Z,14.73
2019-01-29T18:27:09.867Z,11.33
2019-01-29T18:37:56.791Z,11.00
2019-01-29T18:41:31.103Z,14.63
2019-01-29T18:48:36.875Z,7.17
2019-01-29T18:51:44.150Z,11.13
2019-01-29T18:54:58.153Z,12.87
2019-01-29T19:01:53.911Z,10.03
2019-01-29T19:04:49.675Z,8.20
2019-01-29T19:07:54.004Z,6.83
2019-01-29T19:11:04.755Z,10.50
2019-01-29T19:14:28.907Z,8.90
2019-01-29T19:17:45.126Z,8.70
2019-01-29T19:20:42.800Z,10.13
2019-01-29T19:24:16.341Z,8.50
2019-01-29T19:27:11.374Z,10.30
2019-01-29T19:31:37.626Z,8.17
2019-01-29T19:38:59.892Z,7.13
2019-01-29T19:42:30.166Z,10.87
2019-01-29T19:45:38.026Z,12.33
2019-01-29T19:48:59.312Z,9.18
2019-01-29T19:52:26.815Z,15.28
2019-01-29T20:03:48.421Z,9.43
2019-01-29T20:10:02.647Z,17.13
2019-01-29T20:16:50.067Z,10.43
2019-01-29T20:20:25.704Z,12.97
2019-01-29T20:28:23.676Z,7.97
2019-01-29T20:31:19.426Z,11.93
2019-01-29T20:34:28.799Z,10.03
2019-01-29T20:37:28.041Z,12.33
2019-01-29T20:40:46.758Z,11.03
2019-01-29T20:44:27.200Z,11.87
2019-01-29T20:48:08.213Z,9.43
2019-01-29T20:51:00.178Z,21.43
2019-01-29T20:54:21.577Z,13.03
2019-01-29T20:57:29.356Z,12.70
2019-01-29T21:01:15.849Z,10.03
2019-01-29T21:05:08.400Z,8.43
2019-01-29T21:08:31.329Z,8.13
2019-01-29T21:12:00.027Z,10.73
2019-01-29T21:15:18.148Z,10.68
2019-01-29T21:19:13.302Z,10.30
2019-01-29T21:22:11.892Z,12.25
2019-01-29T21:25:54.111Z,17.03
2019-01-29T21:36:37.803Z,13.70
2019-01-29T21:44:18.324Z,13.93
2019-01-29T21:47:27.945Z,14.93
2019-01-29T21:50:49.957Z,16.15
2019-01-29T21:54:03.958Z,14.40
2019-01-29T22:01:11.863Z,14.87
2019-01-29T22:04:43.311Z,18.77
2019-01-29T22:07:57.765Z,7.60
2019-01-29T22:10:44.260Z,13.00
2019-01-29T22:14:00.700Z,8.27
2019-01-29T22:17:47.562Z,8.73
2019-01-29T22:20:59.332Z,15.03
2019-01-29T22:23:59.580Z,12.23
2019-01-29T22:31:00.238Z,12.53
2019-01-29T22:34:06.213Z,13.95
2019-01-29T22:37:01.200Z,10.40
2019-01-29T22:40:24.437Z,17.73
2019-01-29T22:43:56.229Z,12.20
2019-01-29T22:47:29.768Z,13.67
2019-01-29T22:50:41.623Z,15.70
2019-01-29T22:53:59.896Z,15.70
2019-01-29T22:56:51.721Z,11.03
2019-01-29T23:00:08.185Z,20.50
2019-01-29T23:02:45.482Z,11.87
2019-01-29T23:05:50.432Z,15.07
2019-01-29T23:09:34.178Z,9.60
2019-01-29T23:12:51.349Z,8.60
2019-01-29T23:15:33.112Z,11.20
2019-01-29T23:18:37.678Z,11.40
2019-01-29T23:21:49.776Z,13.63
2019-01-29T23:24:48.179Z,7.73
2019-01-29T23:27:58.362Z,15.73
2019-01-29T23:31:08.139Z,11.93
2019-01-29T23:34:08.654Z,13.80
2019-01-29T23:37:12.971Z,11.77
2019-01-29T23:40:27.452Z,10.77
2019-01-29T23:43:30.371Z,8.37
2019-01-29T23:46:34.074Z,13.13
2019-01-29T23:49:38.445Z,9.53
2019-01-29T23:52:44.046Z,13.97
2019-01-29T23:55:54.420Z,9.43
2019-01-29T23:58:43.837Z,10.37
